Spring Creek, Pennsylvania
Current Conditions -  °F | °C
As of 3:55 PM on Tuesday 21 Oct 2014 (Local Time) from KJHW Reporting Station
Overcast Overcast  
Wind Chill: 44°   Ceiling: 5000
Heat Index: 48°   Visibility: 10mi
Dew Point: 45°   Wind: 10mph
Humidity: 87%   Direction: 340°NNW
Pressure: 29.89"   Gusts: NA
Location:  41.88°N, 79.53°W
Report Text: KJHW 211955Z AUTO 34009KT 10SM FEW012 FEW034 OVC050 09/07 A2989 RMK AO1
Loading
Personal Weather Stations






























Interactive Weather Map
Tropical Storm Tracking
New forecast layout! Learn more

10-Day Weather Forecast

Advertisements
Track Severe Weather on mobile